createdAt,value
2023-01-05T00:01:40.313Z,10.20
2023-01-05T00:04:08.363Z,10.20
2023-01-05T00:06:37.220Z,10.20
2023-01-05T00:09:05.228Z,10.10
2023-01-05T00:11:50.808Z,10.20
2023-01-05T00:14:37.913Z,10.20
2023-01-05T00:17:23.382Z,10.20
2023-01-05T00:20:09.165Z,10.20
2023-01-05T00:22:40.976Z,10.10
2023-01-05T00:25:12.460Z,10.10
2023-01-05T00:27:40.812Z,10.10
2023-01-05T00:30:10.873Z,10.10
2023-01-05T00:32:38.659Z,10.00
2023-01-05T00:35:07.180Z,10.10
2023-01-05T00:37:36.323Z,10.10
2023-01-05T00:40:04.513Z,10.10
2023-01-05T00:42:32.298Z,10.10
2023-01-05T00:45:00.130Z,10.00
2023-01-05T00:47:29.253Z,9.90
2023-01-05T00:49:57.047Z,9.90
2023-01-05T00:52:24.856Z,9.80
2023-01-05T00:54:52.688Z,9.80
2023-01-05T00:57:20.475Z,9.80
2023-01-05T00:59:48.268Z,9.70
2023-01-05T01:02:16.247Z,9.70
2023-01-05T01:04:45.499Z,9.70
2023-01-05T01:07:13.298Z,9.70
2023-01-05T01:09:41.444Z,9.70
2023-01-05T01:12:09.292Z,9.70
2023-01-05T01:14:37.127Z,9.80
2023-01-05T01:17:04.921Z,9.90
2023-01-05T01:19:33.503Z,9.90
2023-01-05T01:22:02.731Z,10.00
2023-01-05T01:24:30.614Z,10.10
2023-01-05T01:26:58.413Z,10.20
2023-01-05T01:29:26.292Z,10.20
2023-01-05T01:31:54.374Z,10.30
2023-01-05T01:34:23.246Z,10.30
2023-01-05T01:36:51.148Z,10.40
2023-01-05T01:39:20.330Z,10.50
2023-01-05T01:41:48.152Z,10.40
2023-01-05T01:44:54.250Z,10.40
2023-01-05T01:47:27.158Z,10.40
2023-01-05T01:49:54.961Z,10.40
2023-01-05T01:52:22.754Z,10.40
2023-01-05T01:54:52.065Z,10.50
2023-01-05T01:57:19.866Z,10.40
2023-01-05T01:59:47.677Z,10.40
2023-01-05T02:02:15.557Z,10.40
2023-01-05T02:04:43.797Z,10.50
2023-01-05T02:07:11.847Z,10.50
2023-01-05T02:09:40.437Z,10.60
2023-01-05T02:12:14.760Z,10.60
2023-01-05T02:14:47.027Z,10.60
2023-01-05T02:17:17.400Z,10.60
2023-01-05T02:20:25.612Z,10.60
2023-01-05T02:23:17.281Z,10.60
2023-01-05T02:25:55.682Z,10.70
2023-01-05T02:28:33.253Z,10.70
2023-01-05T02:31:14.283Z,10.60
2023-01-05T02:33:55.007Z,10.70
2023-01-05T02:36:28.984Z,10.70
2023-01-05T02:38:59.483Z,10.60
2023-01-05T02:41:30.153Z,10.70
2023-01-05T02:43:58.270Z,10.70
2023-01-05T02:46:27.526Z,10.70
2023-01-05T02:48:55.965Z,10.80
2023-01-05T02:51:24.804Z,10.80
2023-01-05T02:53:54.700Z,10.80
2023-01-05T02:56:24.471Z,10.80
2023-01-05T02:58:53.622Z,10.80
2023-01-05T03:01:23.197Z,10.90
2023-01-05T03:03:53.918Z,10.90
2023-01-05T03:06:23.732Z,10.90
2023-01-05T03:08:52.603Z,10.90
2023-01-05T03:11:38.243Z,10.90
2023-01-05T03:14:09.500Z,11.00
2023-01-05T03:16:37.872Z,11.00
2023-01-05T03:19:27.131Z,11.10
2023-01-05T03:22:12.657Z,11.00
2023-01-05T03:24:58.194Z,11.10
2023-01-05T03:27:43.750Z,11.10
2023-01-05T03:30:29.819Z,11.10
2023-01-05T03:33:19.301Z,11.10
2023-01-05T03:35:48.505Z,11.10
2023-01-05T03:38:19.702Z,11.10
2023-01-05T03:40:47.787Z,11.20
2023-01-05T03:43:15.639Z,11.20
2023-01-05T03:49:30.957Z,11.20
2023-01-05T03:52:00.215Z,11.20
2023-01-05T03:54:28.100Z,11.10
2023-01-05T03:56:55.972Z,11.20
2023-01-05T03:59:23.847Z,11.10
2023-01-05T04:01:51.761Z,11.10
2023-01-05T04:04:19.676Z,11.20
2023-01-05T04:06:47.602Z,11.20
2023-01-05T04:09:16.802Z,11.10
2023-01-05T04:11:44.662Z,11.10
2023-01-05T04:14:12.481Z,11.10
2023-01-05T04:16:40.514Z,11.10
2023-01-05T04:19:08.388Z,11.10
2023-01-05T04:21:36.213Z,11.10
2023-01-05T04:24:04.592Z,11.20
2023-01-05T04:26:33.806Z,11.20
2023-01-05T04:29:01.776Z,11.10
2023-01-05T04:31:29.709Z,11.10
2023-01-05T04:33:57.626Z,11.10
2023-01-05T04:36:25.488Z,11.10
2023-01-05T04:38:53.463Z,11.10
2023-01-05T04:41:21.440Z,11.10
2023-01-05T04:43:50.820Z,11.10
2023-01-05T04:46:18.834Z,11.10
2023-01-05T04:48:46.838Z,11.10
2023-01-05T04:51:14.936Z,11.10
2023-01-05T04:53:42.800Z,11.10
2023-01-05T04:56:11.096Z,11.10
2023-01-05T04:58:38.905Z,11.10
2023-01-05T05:01:08.334Z,11.10
2023-01-05T05:03:36.170Z,11.10
2023-01-05T05:06:04.055Z,11.10
2023-01-05T05:08:31.918Z,11.10
2023-01-05T05:10:59.861Z,11.10
2023-01-05T05:13:27.732Z,11.10
2023-01-05T05:15:55.600Z,11.00
2023-01-05T05:18:24.814Z,11.00
2023-01-05T05:20:53.191Z,11.00
2023-01-05T05:23:21.761Z,11.00
2023-01-05T05:25:51.100Z,11.00
2023-01-05T05:28:19.021Z,11.00
2023-01-05T05:30:46.897Z,11.00
2023-01-05T05:33:14.724Z,11.00
2023-01-05T05:35:44.377Z,10.90
2023-01-05T05:38:12.248Z,10.90
2023-01-05T05:40:40.154Z,10.90
2023-01-05T05:43:08.117Z,10.90
2023-01-05T05:45:36.041Z,10.90
2023-01-05T05:48:04.171Z,10.80
2023-01-05T05:50:32.057Z,10.80
2023-01-05T05:53:01.309Z,10.80
2023-01-05T05:55:29.226Z,10.70
2023-01-05T05:57:57.100Z,10.70
2023-01-05T06:00:24.977Z,10.70
2023-01-05T06:02:52.907Z,10.70
2023-01-05T06:05:20.892Z,10.70
2023-01-05T06:07:48.819Z,10.70
2023-01-05T06:10:18.260Z,10.70
2023-01-05T06:12:46.222Z,10.60
2023-01-05T06:15:14.201Z,10.60
2023-01-05T06:17:42.128Z,10.60
2023-01-05T06:20:10.781Z,10.60
2023-01-05T06:22:38.693Z,10.60
2023-01-05T06:25:07.175Z,10.60
2023-01-05T06:27:36.425Z,10.60
2023-01-05T06:30:04.662Z,10.60
2023-01-05T06:32:32.573Z,10.60
2023-01-05T06:35:00.427Z,10.60
2023-01-05T06:37:28.307Z,10.60
2023-01-05T06:39:56.389Z,10.60
2023-01-05T06:42:24.246Z,10.60
2023-01-05T06:44:53.522Z,10.60
2023-01-05T06:47:21.398Z,10.60
2023-01-05T06:49:49.254Z,10.60
2023-01-05T06:52:17.228Z,10.60
2023-01-05T06:54:45.184Z,10.50
2023-01-05T06:57:13.203Z,10.50
2023-01-05T06:59:41.273Z,10.50
2023-01-05T07:02:14.294Z,10.50
2023-01-05T07:04:42.273Z,10.60
2023-01-05T07:07:10.770Z,10.60
2023-01-05T07:09:38.657Z,10.60
2023-01-05T07:12:06.643Z,10.60
2023-01-05T07:14:34.523Z,10.60
2023-01-05T07:17:02.424Z,10.60
2023-01-05T07:19:31.703Z,10.60
2023-01-05T07:21:59.609Z,10.60
2023-01-05T07:24:27.518Z,10.60
2023-01-05T07:26:55.367Z,10.50
2023-01-05T07:29:23.221Z,10.50
2023-01-05T07:31:52.402Z,10.50
2023-01-05T07:34:20.408Z,10.50
2023-01-05T07:36:49.864Z,10.50
2023-01-05T07:39:17.806Z,10.50
2023-01-05T07:41:45.744Z,10.40
2023-01-05T07:44:13.668Z,10.40
2023-01-05T07:46:41.566Z,10.50
2023-01-05T07:49:09.677Z,10.50
2023-01-05T07:51:37.754Z,10.50
2023-01-05T07:54:07.143Z,10.50
2023-01-05T07:56:35.144Z,10.50
2023-01-05T07:59:03.064Z,10.50
2023-01-05T08:01:31.103Z,10.50
2023-01-05T08:03:59.025Z,10.50
2023-01-05T08:06:27.060Z,10.60
2023-01-05T08:08:54.944Z,10.60
2023-01-05T08:11:24.287Z,10.60
2023-01-05T08:14:02.558Z,10.60
2023-01-05T08:16:31.496Z,10.60
2023-01-05T08:18:59.609Z,10.60
2023-01-05T08:21:27.562Z,10.60
2023-01-05T08:23:55.459Z,10.60
2023-01-05T08:26:24.887Z,10.70
2023-01-05T08:28:52.922Z,10.70
2023-01-05T08:31:21.855Z,10.60
2023-01-05T08:33:49.783Z,10.60
2023-01-05T08:36:19.925Z,10.60
2023-01-05T08:38:49.197Z,10.60
2023-01-05T08:41:18.000Z,10.60
2023-01-05T08:43:50.794Z,10.60
2023-01-05T08:46:18.921Z,10.60
2023-01-05T08:48:49.736Z,10.60
2023-01-05T08:51:17.642Z,10.60
2023-01-05T08:53:45.575Z,10.60
2023-01-05T08:56:14.509Z,10.60
2023-01-05T08:58:42.527Z,10.50
2023-01-05T09:01:12.246Z,10.50
2023-01-05T09:03:40.310Z,10.50
2023-01-05T09:06:09.492Z,10.50
2023-01-05T09:08:37.413Z,10.50
2023-01-05T09:11:09.580Z,10.50
2023-01-05T09:13:37.686Z,10.50
2023-01-05T09:16:07.320Z,10.50
2023-01-05T09:18:36.539Z,10.50
2023-01-05T09:21:06.053Z,10.50
2023-01-05T09:23:34.033Z,10.50
2023-01-05T09:26:01.965Z,10.60
2023-01-05T09:28:29.784Z,10.60
2023-01-05T09:30:57.794Z,10.60
2023-01-05T09:33:25.959Z,10.60
2023-01-05T09:35:57.929Z,10.60
2023-01-05T09:38:25.854Z,10.60
2023-01-05T09:40:55.238Z,10.70
2023-01-05T09:43:26.124Z,10.70
2023-01-05T09:45:54.611Z,10.70
2023-01-05T09:48:22.534Z,10.70
2023-01-05T09:50:50.687Z,10.70
2023-01-05T09:53:30.127Z,10.70
2023-01-05T09:55:58.243Z,10.70
2023-01-05T09:58:30.094Z,10.70
2023-01-05T10:01:05.677Z,10.70
2023-01-05T10:06:21.364Z,10.60
2023-01-05T10:08:51.367Z,10.60
2023-01-05T10:11:38.052Z,10.70
2023-01-05T10:14:10.098Z,10.60
2023-01-05T10:16:45.433Z,10.60
2023-01-05T10:19:14.434Z,10.60
2023-01-05T10:21:48.772Z,10.60
2023-01-05T10:24:23.837Z,10.60
2023-01-05T10:29:45.414Z,10.60
2023-01-05T10:32:21.499Z,10.60
2023-01-05T10:34:56.697Z,10.60
2023-01-05T10:37:45.850Z,10.70
2023-01-05T10:40:22.003Z,10.70
2023-01-05T10:42:55.755Z,10.80
2023-01-05T10:45:23.645Z,10.80
2023-01-05T10:47:51.542Z,10.80
2023-01-05T10:50:31.488Z,10.90
2023-01-05T10:52:59.551Z,10.90
2023-01-05T10:55:29.259Z,10.90
2023-01-05T10:57:57.127Z,11.00
2023-01-05T11:00:41.461Z,11.00
2023-01-05T11:03:13.832Z,11.00
2023-01-05T11:05:43.770Z,11.00
2023-01-05T11:08:16.026Z,11.10
2023-01-05T11:10:50.677Z,11.10
2023-01-05T11:13:23.688Z,11.20
2023-01-05T11:15:54.092Z,11.20
2023-01-05T11:18:26.628Z,11.20
2023-01-05T11:21:11.785Z,11.20
2023-01-05T11:23:40.390Z,11.20
2023-01-05T11:26:29.781Z,11.20
2023-01-05T11:29:06.660Z,11.20
2023-01-05T11:31:36.000Z,11.20
2023-01-05T11:34:08.658Z,11.20
2023-01-05T11:36:36.643Z,11.20
2023-01-05T11:39:04.668Z,11.10
2023-01-05T11:41:34.414Z,11.10
2023-01-05T11:44:03.255Z,11.10
2023-01-05T11:46:41.693Z,11.00
2023-01-05T11:49:09.600Z,11.00
2023-01-05T11:51:38.038Z,10.90
2023-01-05T11:54:06.784Z,10.90
2023-01-05T11:56:35.970Z,10.90
2023-01-05T11:59:03.816Z,10.90
2023-01-05T12:01:44.695Z,10.90
2023-01-05T12:04:34.688Z,10.90
2023-01-05T12:07:17.463Z,10.90
2023-01-05T12:09:46.551Z,10.90
2023-01-05T12:12:40.346Z,10.90
2023-01-05T12:15:38.571Z,10.80
2023-01-05T12:18:13.845Z,10.80
2023-01-05T12:20:55.623Z,10.90
2023-01-05T12:23:47.990Z,10.80
2023-01-05T12:26:20.563Z,10.70
2023-01-05T12:29:59.930Z,10.80
2023-01-05T12:35:10.190Z,10.60
2023-01-05T12:37:41.092Z,10.50
2023-01-05T12:40:19.336Z,10.50
2023-01-05T12:43:03.386Z,10.50
2023-01-05T12:46:01.286Z,10.40
2023-01-05T12:48:30.028Z,10.30
2023-01-05T12:51:02.940Z,10.30
2023-01-05T12:53:38.792Z,10.20
2023-01-05T12:56:13.996Z,10.20
2023-01-05T12:58:44.351Z,10.20
2023-01-05T13:01:19.279Z,10.20
2023-01-05T13:03:49.075Z,10.10
2023-01-05T13:06:17.851Z,10.10
2023-01-05T13:08:47.088Z,10.10
2023-01-05T13:11:18.400Z,10.10
2023-01-05T13:13:48.034Z,10.20
2023-01-05T13:16:19.094Z,10.10
2023-01-05T13:18:50.097Z,10.20
2023-01-05T13:21:18.067Z,10.10
2023-01-05T13:23:46.847Z,10.10
2023-01-05T13:26:16.481Z,10.00
2023-01-05T13:28:44.330Z,10.10
2023-01-05T13:31:34.459Z,10.10
2023-01-05T13:34:12.655Z,10.10
2023-01-05T13:36:51.310Z,10.20
2023-01-05T13:39:30.758Z,10.20
2023-01-05T13:42:21.933Z,10.10
2023-01-05T13:45:00.489Z,10.20
2023-01-05T13:51:28.549Z,10.20
2023-01-05T13:53:56.344Z,10.30
2023-01-05T13:56:25.399Z,10.30
2023-01-05T13:58:53.719Z,10.40
2023-01-05T14:01:33.969Z,10.30
2023-01-05T14:04:01.805Z,10.40
2023-01-05T14:06:31.641Z,10.40
2023-01-05T14:09:00.476Z,10.40
2023-01-05T14:11:28.623Z,10.40
2023-01-05T14:13:58.397Z,10.40
2023-01-05T14:16:52.003Z,10.40
2023-01-05T14:19:24.774Z,10.40
2023-01-05T14:22:26.837Z,10.40
2023-01-05T14:24:55.988Z,10.30
2023-01-05T14:27:24.252Z,10.30
2023-01-05T14:30:22.205Z,10.30
2023-01-05T14:33:31.353Z,10.30
2023-01-05T14:35:59.153Z,10.30
2023-01-05T14:38:28.267Z,10.30
2023-01-05T14:40:56.293Z,10.30
2023-01-05T14:43:28.919Z,10.30
2023-01-05T14:46:07.458Z,10.30
2023-01-05T14:48:36.735Z,10.30
2023-01-05T14:51:19.102Z,10.30
2023-01-05T14:53:48.980Z,10.30
2023-01-05T14:56:19.674Z,10.30
2023-01-05T14:59:10.492Z,10.30
2023-01-05T15:04:12.544Z,10.30
2023-01-05T15:06:48.120Z,10.30
2023-01-05T15:09:35.039Z,10.30
2023-01-05T15:12:09.909Z,10.30
2023-01-05T15:14:45.652Z,10.30
2023-01-05T15:17:49.196Z,10.30
2023-01-05T15:20:31.366Z,10.30
2023-01-05T15:23:11.561Z,10.30
2023-01-05T15:26:02.722Z,10.30
2023-01-05T15:29:02.435Z,10.30
2023-01-05T15:31:36.753Z,10.30
2023-01-05T15:34:18.103Z,10.30
2023-01-05T15:36:50.247Z,10.40
2023-01-05T15:39:23.921Z,10.30
2023-01-05T15:44:38.209Z,10.30
2023-01-05T15:47:06.405Z,10.40
2023-01-05T15:53:32.631Z,10.30
2023-01-05T15:59:50.204Z,10.30
2023-01-05T16:02:18.294Z,10.30
2023-01-05T16:05:11.712Z,10.30
2023-01-05T16:08:06.436Z,10.30
2023-01-05T16:14:18.756Z,10.20
2023-01-05T16:16:53.019Z,10.30
2023-01-05T16:19:40.656Z,10.30
2023-01-05T16:22:13.944Z,10.30
2023-01-05T16:24:45.311Z,10.20
2023-01-05T16:27:13.864Z,10.10
2023-01-05T16:30:13.898Z,10.10
2023-01-05T16:32:43.028Z,10.10
2023-01-05T16:35:24.668Z,10.10
2023-01-05T16:38:16.149Z,10.00
2023-01-05T16:41:00.033Z,10.10
2023-01-05T16:43:31.158Z,10.00
2023-01-05T16:46:11.690Z,10.00
2023-01-05T16:48:49.478Z,10.00
2023-01-05T16:51:18.288Z,10.00
2023-01-05T16:53:46.874Z,10.00
2023-01-05T16:56:20.197Z,10.00
2023-01-05T16:58:48.150Z,10.00
2023-01-05T17:01:26.856Z,10.00
2023-01-05T17:03:56.367Z,9.90
2023-01-05T17:06:27.190Z,9.90
2023-01-05T17:08:55.346Z,10.00
2023-01-05T17:11:23.238Z,10.00
2023-01-05T17:14:28.423Z,10.00
2023-01-05T17:16:56.462Z,10.00
2023-01-05T17:19:25.793Z,10.00
2023-01-05T17:21:56.277Z,10.00
2023-01-05T17:24:24.201Z,10.10
2023-01-05T17:26:52.284Z,10.00
2023-01-05T17:29:21.143Z,10.00
2023-01-05T17:31:49.153Z,10.00
2023-01-05T17:34:17.052Z,10.00
2023-01-05T17:36:46.518Z,10.00
2023-01-05T17:39:15.164Z,10.00
2023-01-05T17:41:43.024Z,10.00
2023-01-05T17:44:11.012Z,9.90
2023-01-05T17:46:40.691Z,9.90
2023-01-05T17:49:08.823Z,9.90
2023-01-05T17:51:36.743Z,9.90
2023-01-05T17:54:06.277Z,9.90
2023-01-05T17:56:34.365Z,9.90
2023-01-05T17:59:03.391Z,9.90
2023-01-05T18:01:33.461Z,9.90
2023-01-05T18:04:01.530Z,9.90
2023-01-05T18:06:29.486Z,9.90
2023-01-05T18:08:57.516Z,9.90
2023-01-05T18:11:26.781Z,9.80
2023-01-05T18:13:54.660Z,9.90
2023-01-05T18:16:23.037Z,9.90
2023-01-05T18:18:51.473Z,9.90
2023-01-05T18:21:19.349Z,9.90
2023-01-05T18:23:47.398Z,9.80
2023-01-05T18:26:15.307Z,9.80
2023-01-05T18:28:44.524Z,9.80
2023-01-05T18:31:12.900Z,9.80
2023-01-05T18:33:40.806Z,9.70
2023-01-05T18:36:09.566Z,9.70
2023-01-05T18:38:38.393Z,9.70
2023-01-05T18:41:07.080Z,9.70
2023-01-05T18:43:35.155Z,9.70
2023-01-05T18:46:04.474Z,9.70
2023-01-05T18:48:32.470Z,9.80
2023-01-05T18:51:00.432Z,9.90
2023-01-05T18:53:28.292Z,9.80
2023-01-05T18:55:56.231Z,9.80
2023-01-05T18:58:24.094Z,9.80
2023-01-05T19:00:52.154Z,9.80
2023-01-05T19:03:21.809Z,9.80
2023-01-05T19:05:49.831Z,9.70
2023-01-05T19:08:17.711Z,9.70
2023-01-05T19:10:45.628Z,9.80
2023-01-05T19:13:13.474Z,9.70
2023-01-05T19:15:41.488Z,9.70
2023-01-05T19:18:10.057Z,9.70
2023-01-05T19:20:39.338Z,9.70
2023-01-05T19:23:07.191Z,9.70
2023-01-05T19:25:35.219Z,9.70
2023-01-05T19:28:03.166Z,9.70
2023-01-05T19:30:31.334Z,9.70
2023-01-05T19:33:01.061Z,9.70
2023-01-05T19:35:31.245Z,9.70
2023-01-05T19:38:02.500Z,9.70
2023-01-05T19:40:30.526Z,9.80
2023-01-05T19:42:58.517Z,9.70
2023-01-05T19:45:26.450Z,9.70
2023-01-05T19:47:54.490Z,9.70
2023-01-05T19:50:22.431Z,9.70
2023-01-05T19:52:50.558Z,9.70
2023-01-05T19:55:20.110Z,9.60
2023-01-05T19:57:48.132Z,9.70
2023-01-05T20:00:17.165Z,9.60
2023-01-05T20:02:45.145Z,9.60
2023-01-05T20:05:14.114Z,9.60
2023-01-05T20:07:43.811Z,9.50
2023-01-05T20:10:11.707Z,9.60
2023-01-05T20:12:41.000Z,9.60
2023-01-05T20:15:11.837Z,9.60
2023-01-05T20:17:39.717Z,9.60
2023-01-05T20:20:08.729Z,9.50
2023-01-05T20:22:36.585Z,9.50
2023-01-05T20:25:04.835Z,9.50
2023-01-05T20:27:32.746Z,9.40
2023-01-05T20:30:01.964Z,9.50
2023-01-05T20:32:29.871Z,9.40
2023-01-05T20:35:00.046Z,9.30
2023-01-05T20:37:28.134Z,9.40
2023-01-05T20:39:56.453Z,9.30
2023-01-05T20:42:24.429Z,9.30
2023-01-05T20:44:52.475Z,9.30
2023-01-05T20:47:21.901Z,9.30
2023-01-05T20:49:49.749Z,9.30
2023-01-05T20:52:18.519Z,9.40
2023-01-05T20:54:47.049Z,9.40
2023-01-05T20:57:15.123Z,9.30
2023-01-05T20:59:43.030Z,9.40
2023-01-05T21:02:22.557Z,9.30
2023-01-05T21:04:53.411Z,9.40
2023-01-05T21:07:21.348Z,9.40
2023-01-05T21:09:50.357Z,9.50
2023-01-05T21:12:18.265Z,9.40
2023-01-05T21:14:46.095Z,9.40
2023-01-05T21:17:13.952Z,9.30
2023-01-05T21:19:41.861Z,9.30
2023-01-05T21:22:11.109Z,9.30
2023-01-05T21:24:39.084Z,9.20
2023-01-05T21:27:07.004Z,9.30
2023-01-05T21:29:34.949Z,9.30
2023-01-05T21:32:02.868Z,9.20
2023-01-05T21:34:30.809Z,9.20
2023-01-05T21:36:58.694Z,9.30
2023-01-05T21:39:28.545Z,9.30
2023-01-05T21:42:14.091Z,9.20
2023-01-05T21:44:42.009Z,9.30
2023-01-05T21:47:09.910Z,9.40
2023-01-05T21:49:37.757Z,9.30
2023-01-05T21:52:23.647Z,9.20
2023-01-05T21:55:10.341Z,9.10
2023-01-05T21:57:38.220Z,9.20
2023-01-05T22:00:07.143Z,9.30
2023-01-05T22:02:35.052Z,9.20
2023-01-05T22:05:03.038Z,9.20
2023-01-05T22:07:31.068Z,9.30
2023-01-05T22:10:00.330Z,9.20
2023-01-05T22:12:28.338Z,9.30
2023-01-05T22:14:56.440Z,9.30
2023-01-05T22:17:24.334Z,9.20
2023-01-05T22:19:53.328Z,9.30
2023-01-05T22:22:21.379Z,9.30
2023-01-05T22:24:49.315Z,9.30
2023-01-05T22:27:18.564Z,9.30
2023-01-05T22:29:46.569Z,9.30
2023-01-05T22:32:14.444Z,9.30
2023-01-05T22:34:44.409Z,9.40
2023-01-05T22:37:12.220Z,9.40
2023-01-05T22:39:40.099Z,9.40
2023-01-05T22:42:08.057Z,9.30
2023-01-05T22:44:37.325Z,9.20
2023-01-05T22:47:05.360Z,9.20
2023-01-05T22:49:33.203Z,9.30
2023-01-05T22:52:01.101Z,9.30
2023-01-05T22:54:29.551Z,9.30
2023-01-05T22:56:57.372Z,9.20
2023-01-05T22:59:25.769Z,9.20
2023-01-05T23:01:55.940Z,9.10
2023-01-05T23:04:23.855Z,9.00
2023-01-05T23:06:51.679Z,9.00
2023-01-05T23:09:20.749Z,9.00
2023-01-05T23:11:48.653Z,8.90
2023-01-05T23:14:18.417Z,8.90
2023-01-05T23:16:46.440Z,8.80
2023-01-05T23:19:16.954Z,8.80
2023-01-05T23:21:45.071Z,8.80
2023-01-05T23:24:12.917Z,8.80
2023-01-05T23:26:40.738Z,8.80
2023-01-05T23:29:08.593Z,8.80
2023-01-05T23:31:36.427Z,8.80
2023-01-05T23:34:04.241Z,8.60
2023-01-05T23:36:33.472Z,8.50
2023-01-05T23:39:01.313Z,8.70
2023-01-05T23:41:29.151Z,9.00
2023-01-05T23:43:57.004Z,8.90
2023-01-05T23:46:25.069Z,8.60
2023-01-05T23:48:53.024Z,8.60
2023-01-05T23:51:20.850Z,8.60
2023-01-05T23:53:51.142Z,8.60
2023-01-05T23:56:20.092Z,8.50
2023-01-05T23:58:48.104Z,8.50
